sensor_id;sensor_type;location;lat;lon;timestamp;P1;durP1;ratioP1;P2;durP2;ratioP2
6292;SDS011;3179;54.350;10.102;2022-11-14T00:00:38;11.83;;;10.53;;
6292;SDS011;3179;54.350;10.102;2022-11-14T00:03:06;14.10;;;11.30;;
6292;SDS011;3179;54.350;10.102;2022-11-14T00:05:37;15.00;;;11.70;;
6292;SDS011;3179;54.350;10.102;2022-11-14T00:08:06;12.63;;;11.30;;
6292;SDS011;3179;54.350;10.102;2022-11-14T00:10:38;14.53;;;11.63;;
6292;SDS011;3179;54.350;10.102;2022-11-14T00:13:05;15.23;;;12.63;;
6292;SDS011;3179;54.350;10.102;2022-11-14T00:15:32;13.10;;;11.33;;
6292;SDS011;3179;54.350;10.102;2022-11-14T00:17:59;12.70;;;10.60;;
6292;SDS011;3179;54.350;10.102;2022-11-14T00:20:25;13.80;;;11.53;;
6292;SDS011;3179;54.350;10.102;2022-11-14T00:22:52;14.27;;;11.90;;
6292;SDS011;3179;54.350;10.102;2022-11-14T00:25:21;15.30;;;13.30;;
6292;SDS011;3179;54.350;10.102;2022-11-14T00:27:47;16.67;;;11.67;;
6292;SDS011;3179;54.350;10.102;2022-11-14T00:30:14;14.90;;;12.33;;
6292;SDS011;3179;54.350;10.102;2022-11-14T00:32:41;15.77;;;13.57;;
6292;SDS011;3179;54.350;10.102;2022-11-14T00:35:08;16.73;;;12.63;;
6292;SDS011;3179;54.350;10.102;2022-11-14T00:37:35;15.23;;;12.33;;
6292;SDS011;3179;54.350;10.102;2022-11-14T00:40:02;15.23;;;12.93;;
6292;SDS011;3179;54.350;10.102;2022-11-14T00:42:31;15.17;;;12.60;;
6292;SDS011;3179;54.350;10.102;2022-11-14T00:44:58;16.03;;;13.97;;
6292;SDS011;3179;54.350;10.102;2022-11-14T00:47:25;17.87;;;12.40;;
6292;SDS011;3179;54.350;10.102;2022-11-14T00:49:52;16.70;;;12.80;;
6292;SDS011;3179;54.350;10.102;2022-11-14T00:52:18;16.60;;;12.70;;
6292;SDS011;3179;54.350;10.102;2022-11-14T00:54:45;16.40;;;13.50;;
6292;SDS011;3179;54.350;10.102;2022-11-14T00:57:12;18.27;;;14.03;;
6292;SDS011;3179;54.350;10.102;2022-11-14T00:59:40;18.10;;;14.30;;
6292;SDS011;3179;54.350;10.102;2022-11-14T01:02:07;19.83;;;14.70;;
6292;SDS011;3179;54.350;10.102;2022-11-14T01:04:34;19.03;;;13.77;;
6292;SDS011;3179;54.350;10.102;2022-11-14T01:07:01;18.13;;;13.63;;
6292;SDS011;3179;54.350;10.102;2022-11-14T01:09:27;17.80;;;13.60;;
6292;SDS011;3179;54.350;10.102;2022-11-14T01:11:54;16.87;;;12.50;;
6292;SDS011;3179;54.350;10.102;2022-11-14T01:14:21;14.60;;;12.50;;
6292;SDS011;3179;54.350;10.102;2022-11-14T01:16:49;17.50;;;13.63;;
6292;SDS011;3179;54.350;10.102;2022-11-14T01:19:16;16.13;;;12.40;;
6292;SDS011;3179;54.350;10.102;2022-11-14T01:21:43;18.50;;;12.70;;
6292;SDS011;3179;54.350;10.102;2022-11-14T01:24:09;17.37;;;13.63;;
6292;SDS011;3179;54.350;10.102;2022-11-14T01:26:36;18.20;;;13.83;;
6292;SDS011;3179;54.350;10.102;2022-11-14T01:29:03;18.80;;;13.50;;
6292;SDS011;3179;54.350;10.102;2022-11-14T01:31:30;16.93;;;12.90;;
6292;SDS011;3179;54.350;10.102;2022-11-14T01:33:58;16.03;;;12.70;;
6292;SDS011;3179;54.350;10.102;2022-11-14T01:36:24;17.43;;;13.93;;
6292;SDS011;3179;54.350;10.102;2022-11-14T01:38:51;16.97;;;13.40;;
6292;SDS011;3179;54.350;10.102;2022-11-14T01:41:18;18.10;;;13.20;;
6292;SDS011;3179;54.350;10.102;2022-11-14T01:43:46;19.93;;;15.20;;
6292;SDS011;3179;54.350;10.102;2022-11-14T01:46:14;16.47;;;13.90;;
6292;SDS011;3179;54.350;10.102;2022-11-14T01:48:45;19.07;;;14.30;;
6292;SDS011;3179;54.350;10.102;2022-11-14T01:51:23;20.70;;;15.03;;
6292;SDS011;3179;54.350;10.102;2022-11-14T01:53:53;22.90;;;15.00;;
6292;SDS011;3179;54.350;10.102;2022-11-14T01:56:23;19.23;;;13.77;;
6292;SDS011;3179;54.350;10.102;2022-11-14T01:58:53;19.47;;;14.20;;
6292;SDS011;3179;54.350;10.102;2022-11-14T02:01:23;21.17;;;14.90;;
6292;SDS011;3179;54.350;10.102;2022-11-14T02:03:50;20.47;;;15.60;;
6292;SDS011;3179;54.350;10.102;2022-11-14T02:06:19;19.57;;;14.60;;
6292;SDS011;3179;54.350;10.102;2022-11-14T02:08:50;21.07;;;15.70;;
6292;SDS011;3179;54.350;10.102;2022-11-14T02:11:18;22.10;;;15.27;;
6292;SDS011;3179;54.350;10.102;2022-11-14T02:13:45;22.00;;;16.57;;
6292;SDS011;3179;54.350;10.102;2022-11-14T02:16:12;21.67;;;16.33;;
6292;SDS011;3179;54.350;10.102;2022-11-14T02:18:39;22.60;;;16.57;;
6292;SDS011;3179;54.350;10.102;2022-11-14T02:21:07;24.17;;;16.63;;
6292;SDS011;3179;54.350;10.102;2022-11-14T02:23:34;20.73;;;15.47;;
6292;SDS011;3179;54.350;10.102;2022-11-14T02:26:00;22.97;;;15.80;;
6292;SDS011;3179;54.350;10.102;2022-11-14T02:28:27;23.10;;;16.30;;
6292;SDS011;3179;54.350;10.102;2022-11-14T02:30:54;22.50;;;15.50;;
6292;SDS011;3179;54.350;10.102;2022-11-14T02:33:21;22.80;;;16.10;;
6292;SDS011;3179;54.350;10.102;2022-11-14T02:35:48;23.23;;;16.63;;
6292;SDS011;3179;54.350;10.102;2022-11-14T02:38:16;22.50;;;16.40;;
6292;SDS011;3179;54.350;10.102;2022-11-14T02:40:43;25.73;;;17.43;;
6292;SDS011;3179;54.350;10.102;2022-11-14T02:43:09;22.27;;;15.67;;
6292;SDS011;3179;54.350;10.102;2022-11-14T02:45:37;26.70;;;16.93;;
6292;SDS011;3179;54.350;10.102;2022-11-14T02:48:04;23.60;;;17.30;;
6292;SDS011;3179;54.350;10.102;2022-11-14T02:50:31;24.40;;;17.30;;
6292;SDS011;3179;54.350;10.102;2022-11-14T02:52:58;26.53;;;18.50;;
6292;SDS011;3179;54.350;10.102;2022-11-14T02:55:26;26.50;;;17.43;;
6292;SDS011;3179;54.350;10.102;2022-11-14T02:57:54;23.60;;;16.20;;
6292;SDS011;3179;54.350;10.102;2022-11-14T03:00:21;26.00;;;16.97;;
6292;SDS011;3179;54.350;10.102;2022-11-14T03:02:48;23.67;;;17.20;;
6292;SDS011;3179;54.350;10.102;2022-11-14T03:05:14;26.83;;;18.30;;
6292;SDS011;3179;54.350;10.102;2022-11-14T03:07:41;22.70;;;16.60;;
6292;SDS011;3179;54.350;10.102;2022-11-14T03:10:08;23.80;;;16.47;;
6292;SDS011;3179;54.350;10.102;2022-11-14T03:12:36;23.43;;;16.37;;
6292;SDS011;3179;54.350;10.102;2022-11-14T03:15:04;27.20;;;18.10;;
6292;SDS011;3179;54.350;10.102;2022-11-14T03:17:31;21.03;;;15.67;;
6292;SDS011;3179;54.350;10.102;2022-11-14T03:19:59;24.83;;;17.37;;
6292;SDS011;3179;54.350;10.102;2022-11-14T03:22:26;23.77;;;16.47;;
6292;SDS011;3179;54.350;10.102;2022-11-14T03:24:53;25.67;;;17.30;;
6292;SDS011;3179;54.350;10.102;2022-11-14T03:27:19;26.67;;;18.03;;
6292;SDS011;3179;54.350;10.102;2022-11-14T03:29:48;23.00;;;16.27;;
6292;SDS011;3179;54.350;10.102;2022-11-14T03:32:14;24.00;;;17.57;;
6292;SDS011;3179;54.350;10.102;2022-11-14T03:34:41;22.50;;;16.37;;
6292;SDS011;3179;54.350;10.102;2022-11-14T03:37:08;20.90;;;15.20;;
6292;SDS011;3179;54.350;10.102;2022-11-14T03:39:35;22.30;;;15.40;;
6292;SDS011;3179;54.350;10.102;2022-11-14T03:42:02;25.53;;;16.93;;
6292;SDS011;3179;54.350;10.102;2022-11-14T03:44:29;26.00;;;17.47;;
6292;SDS011;3179;54.350;10.102;2022-11-14T03:46:57;27.20;;;18.33;;
6292;SDS011;3179;54.350;10.102;2022-11-14T03:49:24;25.43;;;16.07;;
6292;SDS011;3179;54.350;10.102;2022-11-14T03:51:51;20.83;;;15.00;;
6292;SDS011;3179;54.350;10.102;2022-11-14T03:54:18;27.73;;;18.30;;
6292;SDS011;3179;54.350;10.102;2022-11-14T03:56:45;22.40;;;15.67;;
6292;SDS011;3179;54.350;10.102;2022-11-14T03:59:12;24.10;;;15.20;;
6292;SDS011;3179;54.350;10.102;2022-11-14T04:01:39;23.33;;;15.50;;
6292;SDS011;3179;54.350;10.102;2022-11-14T04:04:07;24.70;;;16.97;;
6292;SDS011;3179;54.350;10.102;2022-11-14T04:06:36;22.60;;;17.07;;
6292;SDS011;3179;54.350;10.102;2022-11-14T04:09:03;21.87;;;15.47;;
6292;SDS011;3179;54.350;10.102;2022-11-14T04:11:30;21.73;;;15.37;;
6292;SDS011;3179;54.350;10.102;2022-11-14T04:13:57;26.87;;;17.43;;
6292;SDS011;3179;54.350;10.102;2022-11-14T04:16:24;23.73;;;16.80;;
6292;SDS011;3179;54.350;10.102;2022-11-14T04:18:51;25.00;;;16.83;;
6292;SDS011;3179;54.350;10.102;2022-11-14T04:21:19;21.53;;;15.43;;
6292;SDS011;3179;54.350;10.102;2022-11-14T04:23:46;25.30;;;16.87;;
6292;SDS011;3179;54.350;10.102;2022-11-14T04:26:12;25.60;;;17.27;;
6292;SDS011;3179;54.350;10.102;2022-11-14T04:28:39;27.27;;;18.27;;
6292;SDS011;3179;54.350;10.102;2022-11-14T04:31:06;24.00;;;16.80;;
6292;SDS011;3179;54.350;10.102;2022-11-14T04:33:33;23.70;;;16.60;;
6292;SDS011;3179;54.350;10.102;2022-11-14T04:35:59;24.90;;;16.20;;
6292;SDS011;3179;54.350;10.102;2022-11-14T04:38:27;23.50;;;16.67;;
6292;SDS011;3179;54.350;10.102;2022-11-14T04:40:54;23.87;;;16.60;;
6292;SDS011;3179;54.350;10.102;2022-11-14T04:43:21;22.93;;;16.80;;
6292;SDS011;3179;54.350;10.102;2022-11-14T04:45:49;22.10;;;14.70;;
6292;SDS011;3179;54.350;10.102;2022-11-14T04:48:16;23.50;;;15.30;;
6292;SDS011;3179;54.350;10.102;2022-11-14T04:50:44;25.93;;;16.53;;
6292;SDS011;3179;54.350;10.102;2022-11-14T04:53:10;22.27;;;14.70;;
6292;SDS011;3179;54.350;10.102;2022-11-14T04:55:40;23.20;;;15.80;;
6292;SDS011;3179;54.350;10.102;2022-11-14T04:58:08;22.43;;;16.27;;
6292;SDS011;3179;54.350;10.102;2022-11-14T05:00:35;21.50;;;15.53;;
6292;SDS011;3179;54.350;10.102;2022-11-14T05:03:02;24.20;;;15.87;;
6292;SDS011;3179;54.350;10.102;2022-11-14T05:05:30;24.70;;;16.60;;
6292;SDS011;3179;54.350;10.102;2022-11-14T05:07:56;25.80;;;17.00;;
6292;SDS011;3179;54.350;10.102;2022-11-14T05:10:23;22.87;;;15.97;;
6292;SDS011;3179;54.350;10.102;2022-11-14T05:12:53;25.67;;;15.80;;
6292;SDS011;3179;54.350;10.102;2022-11-14T05:15:20;19.63;;;15.60;;
6292;SDS011;3179;54.350;10.102;2022-11-14T05:17:46;21.97;;;15.93;;
6292;SDS011;3179;54.350;10.102;2022-11-14T05:20:13;21.43;;;14.50;;
6292;SDS011;3179;54.350;10.102;2022-11-14T05:22:40;24.13;;;16.23;;
6292;SDS011;3179;54.350;10.102;2022-11-14T05:25:07;20.23;;;14.70;;
6292;SDS011;3179;54.350;10.102;2022-11-14T05:27:34;21.00;;;15.10;;
6292;SDS011;3179;54.350;10.102;2022-11-14T05:30:03;21.30;;;15.63;;
6292;SDS011;3179;54.350;10.102;2022-11-14T05:32:30;22.37;;;16.13;;
6292;SDS011;3179;54.350;10.102;2022-11-14T05:34:57;23.00;;;15.83;;
6292;SDS011;3179;54.350;10.102;2022-11-14T05:37:24;23.93;;;15.30;;
6292;SDS011;3179;54.350;10.102;2022-11-14T05:39:50;23.43;;;16.17;;
6292;SDS011;3179;54.350;10.102;2022-11-14T05:42:17;20.03;;;14.43;;
6292;SDS011;3179;54.350;10.102;2022-11-14T05:44:44;22.57;;;15.80;;
6292;SDS011;3179;54.350;10.102;2022-11-14T05:47:15;20.70;;;14.60;;
6292;SDS011;3179;54.350;10.102;2022-11-14T05:49:45;22.27;;;16.10;;
6292;SDS011;3179;54.350;10.102;2022-11-14T05:52:12;17.90;;;13.77;;
6292;SDS011;3179;54.350;10.102;2022-11-14T05:54:39;22.00;;;15.50;;
6292;SDS011;3179;54.350;10.102;2022-11-14T05:57:05;21.80;;;14.90;;
6292;SDS011;3179;54.350;10.102;2022-11-14T05:59:32;21.57;;;15.50;;
6292;SDS011;3179;54.350;10.102;2022-11-14T06:01:59;23.20;;;14.73;;
6292;SDS011;3179;54.350;10.102;2022-11-14T06:04:27;21.43;;;14.90;;
6292;SDS011;3179;54.350;10.102;2022-11-14T06:06:54;19.40;;;13.50;;
6292;SDS011;3179;54.350;10.102;2022-11-14T06:09:20;23.40;;;15.77;;
6292;SDS011;3179;54.350;10.102;2022-11-14T06:11:47;22.60;;;15.07;;
6292;SDS011;3179;54.350;10.102;2022-11-14T06:14:14;23.73;;;14.87;;
6292;SDS011;3179;54.350;10.102;2022-11-14T06:16:41;20.40;;;14.33;;
6292;SDS011;3179;54.350;10.102;2022-11-14T06:19:08;22.63;;;15.60;;
6292;SDS011;3179;54.350;10.102;2022-11-14T06:21:36;18.03;;;14.10;;
6292;SDS011;3179;54.350;10.102;2022-11-14T06:24:03;22.03;;;14.47;;
6292;SDS011;3179;54.350;10.102;2022-11-14T06:26:30;19.77;;;14.10;;
6292;SDS011;3179;54.350;10.102;2022-11-14T06:28:57;17.60;;;13.10;;
6292;SDS011;3179;54.350;10.102;2022-11-14T06:31:25;21.50;;;15.70;;
6292;SDS011;3179;54.350;10.102;2022-11-14T06:33:52;17.40;;;13.43;;
6292;SDS011;3179;54.350;10.102;2022-11-14T06:36:20;20.33;;;13.97;;
6292;SDS011;3179;54.350;10.102;2022-11-14T06:38:49;20.53;;;14.90;;
6292;SDS011;3179;54.350;10.102;2022-11-14T06:41:16;22.10;;;15.67;;
6292;SDS011;3179;54.350;10.102;2022-11-14T06:43:44;20.87;;;15.43;;
6292;SDS011;3179;54.350;10.102;2022-11-14T06:46:14;21.53;;;14.43;;
6292;SDS011;3179;54.350;10.102;2022-11-14T06:48:42;18.00;;;13.23;;
6292;SDS011;3179;54.350;10.102;2022-11-14T06:51:09;24.00;;;16.70;;
6292;SDS011;3179;54.350;10.102;2022-11-14T06:53:36;21.80;;;15.70;;
6292;SDS011;3179;54.350;10.102;2022-11-14T06:56:06;18.70;;;14.20;;
6292;SDS011;3179;54.350;10.102;2022-11-14T06:58:35;21.83;;;14.90;;
6292;SDS011;3179;54.350;10.102;2022-11-14T07:01:04;20.00;;;14.67;;
6292;SDS011;3179;54.350;10.102;2022-11-14T07:03:32;21.90;;;15.47;;
6292;SDS011;3179;54.350;10.102;2022-11-14T07:05:59;20.10;;;15.00;;
6292;SDS011;3179;54.350;10.102;2022-11-14T07:08:26;24.57;;;15.73;;
6292;SDS011;3179;54.350;10.102;2022-11-14T07:10:53;22.90;;;16.07;;
6292;SDS011;3179;54.350;10.102;2022-11-14T07:13:26;23.10;;;14.77;;
6292;SDS011;3179;54.350;10.102;2022-11-14T07:15:53;22.37;;;14.60;;
6292;SDS011;3179;54.350;10.102;2022-11-14T07:18:20;21.20;;;14.53;;
6292;SDS011;3179;54.350;10.102;2022-11-14T07:20:47;24.50;;;16.10;;
6292;SDS011;3179;54.350;10.102;2022-11-14T07:23:14;20.00;;;14.13;;
6292;SDS011;3179;54.350;10.102;2022-11-14T07:25:41;20.93;;;15.23;;
6292;SDS011;3179;54.350;10.102;2022-11-14T07:28:07;23.87;;;15.30;;
6292;SDS011;3179;54.350;10.102;2022-11-14T07:30:36;21.40;;;15.10;;
6292;SDS011;3179;54.350;10.102;2022-11-14T07:33:02;24.00;;;15.70;;
6292;SDS011;3179;54.350;10.102;2022-11-14T07:35:29;22.57;;;16.60;;
6292;SDS011;3179;54.350;10.102;2022-11-14T07:38:02;19.00;;;13.10;;
6292;SDS011;3179;54.350;10.102;2022-11-14T07:40:29;25.33;;;15.93;;
6292;SDS011;3179;54.350;10.102;2022-11-14T07:42:56;22.50;;;16.10;;
6292;SDS011;3179;54.350;10.102;2022-11-14T07:45:24;21.83;;;15.13;;
6292;SDS011;3179;54.350;10.102;2022-11-14T07:47:54;22.60;;;16.10;;
6292;SDS011;3179;54.350;10.102;2022-11-14T07:50:21;20.73;;;14.90;;
6292;SDS011;3179;54.350;10.102;2022-11-14T07:52:49;22.80;;;17.00;;
6292;SDS011;3179;54.350;10.102;2022-11-14T07:55:16;25.63;;;15.57;;
6292;SDS011;3179;54.350;10.102;2022-11-14T07:57:43;22.50;;;15.90;;
6292;SDS011;3179;54.350;10.102;2022-11-14T08:00:10;26.00;;;16.10;;
6292;SDS011;3179;54.350;10.102;2022-11-14T08:02:38;27.70;;;17.50;;
6292;SDS011;3179;54.350;10.102;2022-11-14T08:05:07;25.00;;;16.83;;
6292;SDS011;3179;54.350;10.102;2022-11-14T08:07:34;26.90;;;17.03;;
6292;SDS011;3179;54.350;10.102;2022-11-14T08:10:01;25.87;;;18.37;;
6292;SDS011;3179;54.350;10.102;2022-11-14T08:12:28;34.17;;;17.40;;
6292;SDS011;3179;54.350;10.102;2022-11-14T08:14:54;26.30;;;17.80;;
6292;SDS011;3179;54.350;10.102;2022-11-14T08:17:21;26.70;;;16.33;;
6292;SDS011;3179;54.350;10.102;2022-11-14T08:19:49;23.90;;;16.60;;
6292;SDS011;3179;54.350;10.102;2022-11-14T08:22:17;28.90;;;17.23;;
6292;SDS011;3179;54.350;10.102;2022-11-14T08:24:44;26.00;;;18.57;;
6292;SDS011;3179;54.350;10.102;2022-11-14T08:27:40;29.97;;;18.13;;
6292;SDS011;3179;54.350;10.102;2022-11-14T08:30:44;25.80;;;16.53;;
6292;SDS011;3179;54.350;10.102;2022-11-14T08:33:11;29.80;;;17.97;;
6292;SDS011;3179;54.350;10.102;2022-11-14T08:35:39;29.07;;;18.70;;
6292;SDS011;3179;54.350;10.102;2022-11-14T08:38:07;29.00;;;19.23;;
6292;SDS011;3179;54.350;10.102;2022-11-14T08:40:34;30.17;;;18.67;;
6292;SDS011;3179;54.350;10.102;2022-11-14T08:43:01;27.93;;;17.43;;
6292;SDS011;3179;54.350;10.102;2022-11-14T08:45:29;27.77;;;18.60;;
6292;SDS011;3179;54.350;10.102;2022-11-14T08:47:56;30.53;;;18.60;;
6292;SDS011;3179;54.350;10.102;2022-11-14T08:50:23;32.17;;;20.60;;
6292;SDS011;3179;54.350;10.102;2022-11-14T08:52:50;32.00;;;20.77;;
6292;SDS011;3179;54.350;10.102;2022-11-14T08:55:18;29.20;;;19.50;;
6292;SDS011;3179;54.350;10.102;2022-11-14T08:57:45;31.30;;;19.90;;
6292;SDS011;3179;54.350;10.102;2022-11-14T09:00:13;32.63;;;20.20;;
6292;SDS011;3179;54.350;10.102;2022-11-14T09:02:40;27.53;;;18.47;;
6292;SDS011;3179;54.350;10.102;2022-11-14T09:05:07;32.03;;;20.37;;
6292;SDS011;3179;54.350;10.102;2022-11-14T09:07:34;30.53;;;19.70;;
6292;SDS011;3179;54.350;10.102;2022-11-14T09:10:01;33.40;;;20.83;;
6292;SDS011;3179;54.350;10.102;2022-11-14T09:12:30;31.03;;;19.40;;
6292;SDS011;3179;54.350;10.102;2022-11-14T09:14:57;38.17;;;22.97;;
6292;SDS011;3179;54.350;10.102;2022-11-14T09:17:23;36.00;;;22.43;;
6292;SDS011;3179;54.350;10.102;2022-11-14T09:19:50;31.50;;;20.87;;
6292;SDS011;3179;54.350;10.102;2022-11-14T09:22:17;32.10;;;20.43;;
6292;SDS011;3179;54.350;10.102;2022-11-14T09:24:44;35.93;;;22.00;;
6292;SDS011;3179;54.350;10.102;2022-11-14T09:27:13;34.13;;;21.20;;
6292;SDS011;3179;54.350;10.102;2022-11-14T09:29:41;31.83;;;20.73;;
6292;SDS011;3179;54.350;10.102;2022-11-14T09:32:08;34.63;;;21.67;;
6292;SDS011;3179;54.350;10.102;2022-11-14T09:34:37;32.97;;;21.00;;
6292;SDS011;3179;54.350;10.102;2022-11-14T09:37:07;34.87;;;23.07;;
6292;SDS011;3179;54.350;10.102;2022-11-14T09:39:33;35.40;;;21.90;;
6292;SDS011;3179;54.350;10.102;2022-11-14T09:42:09;40.83;;;24.97;;
6292;SDS011;3179;54.350;10.102;2022-11-14T09:44:49;34.80;;;20.90;;
6292;SDS011;3179;54.350;10.102;2022-11-14T09:47:21;36.27;;;21.30;;
6292;SDS011;3179;54.350;10.102;2022-11-14T09:49:50;34.53;;;21.13;;
6292;SDS011;3179;54.350;10.102;2022-11-14T09:52:24;31.50;;;20.63;;
6292;SDS011;3179;54.350;10.102;2022-11-14T09:54:56;35.13;;;21.60;;
6292;SDS011;3179;54.350;10.102;2022-11-14T09:57:26;31.50;;;20.30;;
6292;SDS011;3179;54.350;10.102;2022-11-14T09:59:55;37.50;;;22.60;;
6292;SDS011;3179;54.350;10.102;2022-11-14T10:02:26;34.63;;;23.30;;
6292;SDS011;3179;54.350;10.102;2022-11-14T10:05:08;38.37;;;22.40;;
6292;SDS011;3179;54.350;10.102;2022-11-14T10:07:56;37.60;;;23.23;;
6292;SDS011;3179;54.350;10.102;2022-11-14T10:10:36;40.50;;;21.80;;
6292;SDS011;3179;54.350;10.102;2022-11-14T10:13:13;38.10;;;22.07;;
6292;SDS011;3179;54.350;10.102;2022-11-14T10:15:53;41.03;;;22.63;;
6292;SDS011;3179;54.350;10.102;2022-11-14T10:18:28;40.40;;;24.27;;
6292;SDS011;3179;54.350;10.102;2022-11-14T10:21:14;38.97;;;21.73;;
6292;SDS011;3179;54.350;10.102;2022-11-14T10:23:55;39.97;;;24.10;;
6292;SDS011;3179;54.350;10.102;2022-11-14T10:26:28;39.30;;;24.43;;
6292;SDS011;3179;54.350;10.102;2022-11-14T10:29:00;38.27;;;23.90;;
6292;SDS011;3179;54.350;10.102;2022-11-14T10:31:52;37.97;;;24.60;;
6292;SDS011;3179;54.350;10.102;2022-11-14T10:34:29;37.40;;;22.37;;
6292;SDS011;3179;54.350;10.102;2022-11-14T10:37:00;38.37;;;22.60;;
6292;SDS011;3179;54.350;10.102;2022-11-14T10:39:36;39.00;;;22.50;;
6292;SDS011;3179;54.350;10.102;2022-11-14T10:42:10;37.57;;;22.70;;
6292;SDS011;3179;54.350;10.102;2022-11-14T10:44:41;34.63;;;21.20;;
6292;SDS011;3179;54.350;10.102;2022-11-14T10:47:17;43.60;;;24.73;;
6292;SDS011;3179;54.350;10.102;2022-11-14T10:49:46;35.87;;;21.37;;
6292;SDS011;3179;54.350;10.102;2022-11-14T10:52:17;44.43;;;25.13;;
6292;SDS011;3179;54.350;10.102;2022-11-14T10:54:46;36.17;;;21.70;;
6292;SDS011;3179;54.350;10.102;2022-11-14T10:57:19;38.60;;;22.20;;
6292;SDS011;3179;54.350;10.102;2022-11-14T10:59:47;40.60;;;24.07;;
6292;SDS011;3179;54.350;10.102;2022-11-14T11:02:13;40.93;;;23.13;;
6292;SDS011;3179;54.350;10.102;2022-11-14T11:04:42;36.90;;;22.60;;
6292;SDS011;3179;54.350;10.102;2022-11-14T11:07:17;38.70;;;21.93;;
6292;SDS011;3179;54.350;10.102;2022-11-14T11:10:19;39.53;;;21.87;;
6292;SDS011;3179;54.350;10.102;2022-11-14T11:13:05;36.63;;;22.43;;
6292;SDS011;3179;54.350;10.102;2022-11-14T11:15:37;38.37;;;23.37;;
6292;SDS011;3179;54.350;10.102;2022-11-14T11:18:21;39.90;;;22.90;;
6292;SDS011;3179;54.350;10.102;2022-11-14T11:21:01;33.83;;;20.37;;
6292;SDS011;3179;54.350;10.102;2022-11-14T11:23:33;38.87;;;21.63;;
6292;SDS011;3179;54.350;10.102;2022-11-14T11:26:02;39.17;;;23.30;;
6292;SDS011;3179;54.350;10.102;2022-11-14T11:28:32;37.80;;;21.97;;
6292;SDS011;3179;54.350;10.102;2022-11-14T11:31:00;43.43;;;24.57;;
6292;SDS011;3179;54.350;10.102;2022-11-14T11:33:29;38.73;;;21.80;;
6292;SDS011;3179;54.350;10.102;2022-11-14T11:35:58;40.77;;;23.83;;
6292;SDS011;3179;54.350;10.102;2022-11-14T11:38:29;40.60;;;23.23;;
6292;SDS011;3179;54.350;10.102;2022-11-14T11:40:59;34.70;;;21.97;;
6292;SDS011;3179;54.350;10.102;2022-11-14T11:43:33;41.07;;;23.00;;
6292;SDS011;3179;54.350;10.102;2022-11-14T11:46:07;43.07;;;23.83;;
6292;SDS011;3179;54.350;10.102;2022-11-14T11:48:39;38.83;;;23.10;;
6292;SDS011;3179;54.350;10.102;2022-11-14T11:51:11;36.93;;;21.47;;
6292;SDS011;3179;54.350;10.102;2022-11-14T11:53:41;42.97;;;23.70;;
6292;SDS011;3179;54.350;10.102;2022-11-14T11:56:12;37.33;;;22.40;;
6292;SDS011;3179;54.350;10.102;2022-11-14T11:58:43;38.73;;;21.80;;
6292;SDS011;3179;54.350;10.102;2022-11-14T12:01:12;38.93;;;22.87;;
6292;SDS011;3179;54.350;10.102;2022-11-14T12:03:40;39.60;;;24.07;;
6292;SDS011;3179;54.350;10.102;2022-11-14T12:06:14;37.90;;;22.67;;
6292;SDS011;3179;54.350;10.102;2022-11-14T12:08:47;39.33;;;22.10;;
6292;SDS011;3179;54.350;10.102;2022-11-14T12:11:23;36.60;;;21.97;;
6292;SDS011;3179;54.350;10.102;2022-11-14T12:14:02;40.63;;;23.67;;
6292;SDS011;3179;54.350;10.102;2022-11-14T12:19:56;35.57;;;21.40;;
6292;SDS011;3179;54.350;10.102;2022-11-14T12:22:39;39.63;;;23.30;;
6292;SDS011;3179;54.350;10.102;2022-11-14T12:25:33;35.13;;;21.40;;
6292;SDS011;3179;54.350;10.102;2022-11-14T12:30:56;38.40;;;22.07;;
6292;SDS011;3179;54.350;10.102;2022-11-14T12:33:27;36.77;;;21.03;;
6292;SDS011;3179;54.350;10.102;2022-11-14T12:35:57;35.27;;;21.67;;
6292;SDS011;3179;54.350;10.102;2022-11-14T12:38:31;37.43;;;22.07;;
6292;SDS011;3179;54.350;10.102;2022-11-14T12:41:06;38.50;;;22.10;;
6292;SDS011;3179;54.350;10.102;2022-11-14T12:43:34;36.90;;;23.20;;
6292;SDS011;3179;54.350;10.102;2022-11-14T12:46:02;37.30;;;22.17;;
6292;SDS011;3179;54.350;10.102;2022-11-14T12:48:33;37.23;;;22.87;;
6292;SDS011;3179;54.350;10.102;2022-11-14T12:51:02;34.67;;;22.80;;
6292;SDS011;3179;54.350;10.102;2022-11-14T12:53:41;35.43;;;21.73;;
6292;SDS011;3179;54.350;10.102;2022-11-14T12:56:37;36.10;;;21.07;;
6292;SDS011;3179;54.350;10.102;2022-11-14T12:59:21;36.73;;;21.90;;
6292;SDS011;3179;54.350;10.102;2022-11-14T13:02:18;37.17;;;21.47;;
6292;SDS011;3179;54.350;10.102;2022-11-14T13:05:01;35.60;;;21.90;;
6292;SDS011;3179;54.350;10.102;2022-11-14T13:08:06;32.73;;;21.20;;
6292;SDS011;3179;54.350;10.102;2022-11-14T13:10:41;39.40;;;23.57;;
6292;SDS011;3179;54.350;10.102;2022-11-14T13:13:09;36.87;;;22.30;;
6292;SDS011;3179;54.350;10.102;2022-11-14T13:15:54;33.70;;;22.43;;
6292;SDS011;3179;54.350;10.102;2022-11-14T13:18:50;35.83;;;21.20;;
6292;SDS011;3179;54.350;10.102;2022-11-14T13:21:36;35.10;;;21.47;;
6292;SDS011;3179;54.350;10.102;2022-11-14T13:24:12;36.13;;;21.20;;
6292;SDS011;3179;54.350;10.102;2022-11-14T13:26:43;35.17;;;22.40;;
6292;SDS011;3179;54.350;10.102;2022-11-14T13:35:20;43.60;;;23.80;;
6292;SDS011;3179;54.350;10.102;2022-11-14T13:37:59;38.80;;;21.77;;
6292;SDS011;3179;54.350;10.102;2022-11-14T13:40:50;35.70;;;21.90;;
6292;SDS011;3179;54.350;10.102;2022-11-14T13:43:29;32.57;;;20.77;;
6292;SDS011;3179;54.350;10.102;2022-11-14T13:46:09;35.97;;;22.37;;
6292;SDS011;3179;54.350;10.102;2022-11-14T13:48:54;36.60;;;22.53;;
6292;SDS011;3179;54.350;10.102;2022-11-14T13:51:46;39.20;;;22.30;;
6292;SDS011;3179;54.350;10.102;2022-11-14T13:54:13;37.13;;;22.70;;
6292;SDS011;3179;54.350;10.102;2022-11-14T13:56:41;39.47;;;21.37;;
6292;SDS011;3179;54.350;10.102;2022-11-14T13:59:40;35.37;;;22.00;;
6292;SDS011;3179;54.350;10.102;2022-11-14T14:02:19;35.53;;;21.10;;
6292;SDS011;3179;54.350;10.102;2022-11-14T14:05:08;37.47;;;21.93;;
6292;SDS011;3179;54.350;10.102;2022-11-14T14:07:49;36.13;;;21.90;;
6292;SDS011;3179;54.350;10.102;2022-11-14T14:10:24;41.77;;;22.20;;
6292;SDS011;3179;54.350;10.102;2022-11-14T14:12:58;38.70;;;22.80;;
6292;SDS011;3179;54.350;10.102;2022-11-14T14:15:38;39.33;;;22.80;;
6292;SDS011;3179;54.350;10.102;2022-11-14T14:18:15;34.83;;;21.13;;
6292;SDS011;3179;54.350;10.102;2022-11-14T14:20:51;42.30;;;23.70;;
6292;SDS011;3179;54.350;10.102;2022-11-14T14:23:30;41.20;;;22.90;;
6292;SDS011;3179;54.350;10.102;2022-11-14T14:26:05;40.03;;;22.60;;
6292;SDS011;3179;54.350;10.102;2022-11-14T14:28:44;38.70;;;22.80;;
6292;SDS011;3179;54.350;10.102;2022-11-14T14:31:18;40.50;;;23.00;;
6292;SDS011;3179;54.350;10.102;2022-11-14T14:33:47;35.50;;;21.50;;
6292;SDS011;3179;54.350;10.102;2022-11-14T14:36:16;37.93;;;23.43;;
6292;SDS011;3179;54.350;10.102;2022-11-14T14:38:45;37.80;;;22.77;;
6292;SDS011;3179;54.350;10.102;2022-11-14T14:41:12;44.10;;;22.63;;
6292;SDS011;3179;54.350;10.102;2022-11-14T14:43:45;41.87;;;23.07;;
6292;SDS011;3179;54.350;10.102;2022-11-14T14:46:25;39.80;;;23.60;;
6292;SDS011;3179;54.350;10.102;2022-11-14T14:48:54;39.30;;;23.13;;
6292;SDS011;3179;54.350;10.102;2022-11-14T14:51:28;41.70;;;23.03;;
6292;SDS011;3179;54.350;10.102;2022-11-14T14:53:56;42.17;;;24.27;;
6292;SDS011;3179;54.350;10.102;2022-11-14T14:56:23;36.63;;;23.20;;
6292;SDS011;3179;54.350;10.102;2022-11-14T14:58:51;37.03;;;22.37;;
6292;SDS011;3179;54.350;10.102;2022-11-14T15:01:18;37.90;;;22.03;;
6292;SDS011;3179;54.350;10.102;2022-11-14T15:03:49;39.10;;;23.23;;